MSC Divina — 3FFA5 — position and weather

sailwx.info

Track history (hours):
 
Tides and Currents Weather Stations Pressure Air Temp Water Temp Dewpoint Dewpoint Depression Visibility Wind Speed Wind Dir Waves Ship Positions

MSC Divina

Last reported at 2016-Aug-31 20:33 UTC. Time now 2016-Aug-31 23:34 UTC.
Position N 18°31' W 066°09'.

Length 333 m; draft 8.6 m.

Type: Passenger vessel. MMSI: 373178000.

Date/timePositionNaut miles runAvg speedWind from/ knotsBaromVisibWave heightAir tempDewpointWater temp
2016-Aug-31 20:33N 18°31' W 066°09'4 3.5
2016-Aug-31 19:22N 18°28' W 066°07'0 0.0
2016-Aug-31 18:31N 18°28' W 066°07'0 0.0
2016-Aug-31 17:28N 18°28' W 066°07'0 0.0
2016-Aug-31 16:27N 18°28' W 066°07'0 0.0
2016-Aug-31 15:33N 18°28' W 066°07'0 0.0
2016-Aug-31 14:29N 18°28' W 066°07'0 0.0
2016-Aug-31 13:33N 18°28' W 066°07'0 0.0
2016-Aug-31 12:33N 18°28' W 066°07'0 0.1
2016-Aug-31 11:34N 18°28' W 066°07'8 7.7
2016-Aug-31 10:33N 18°34' W 066°02'6315.1
2016-Aug-31 06:24N 18°13' W 065°00'1518.1
2016-Aug-31 05:33N 18°10' W 064°44'7016.9
2016-Aug-31 01:25N 18°03' W 063°31'9 9.6
2016-Aug-31 00:31N 18°02' W 063°22'9 9.3
2016-Aug-30 23:33N 18°01' W 063°13'9 0.8
2016-Aug-30 12:12N 18°00' W 063°03'5 7.7
2016-Aug-30 11:33N 18°01' W 063°08'1615.2
2016-Aug-30 10:31N 18°09' W 063°23'  
2016-Aug-28 02:08N 26°10' W 079°21'1120.0
2016-Aug-28 01:33N 26°04' W 079°31'2120.8
2016-Aug-28 00:33N 25°53' W 079°51'1616.5
2016-Aug-27 23:33N 25°45' W 080°07'3 3.1
2016-Aug-27 22:31N 25°47' W 080°10'0 0.0
2016-Aug-27 21:31N 25°47' W 080°10'0 0.0
2016-Aug-27 20:31N 25°47' W 080°10'0 0.0
2016-Aug-27 19:33N 25°47' W 080°10'0 0.0
2016-Aug-27 18:33N 25°47' W 080°10'0 0.0
2016-Aug-27 17:33N 25°47' W 080°10'0 0.0
2016-Aug-27 16:32N 25°47' W 080°10'0 0.0
2016-Aug-27 15:32N 25°47' W 080°10'0 0.0
2016-Aug-27 14:32N 25°47' W 080°10'0 0.0
2016-Aug-27 13:32N 25°47' W 080°10'0 0.0
2016-Aug-27 12:32N 25°47' W 080°10'0 0.0
2016-Aug-27 11:32N 25°47' W 080°10'0 0.0
2016-Aug-27 10:32N 25°47' W 080°10'0 0.5
2016-Aug-27 09:33N 25°47' W 080°11'8 8.1
2016-Aug-27 08:33N 25°47' W 080°02'1615.6
2016-Aug-27 07:33N 25°55' W 079°47'9 8.8
2016-Aug-27 06:33N 25°58' W 079°38'3015.0
2016-Aug-27 04:33N 26°11' W 079°07'8 0.4
2016-Aug-26 06:33N 26°07' W 079°15'53617.9
2016-Aug-25 00:33N 20°38' W 086°55'7 7.1
2016-Aug-24 23:33N 20°31' W 086°57'0 0.0
2016-Aug-24 22:33N 20°31' W 086°57'0 0.0
2016-Aug-24 21:33N 20°31' W 086°57'0 0.0
2016-Aug-24 20:33N 20°31' W 086°57'0 0.0
2016-Aug-24 19:33N 20°31' W 086°57'0 0.0
2016-Aug-24 18:32N 20°31' W 086°57'0 0.0
2016-Aug-24 17:32N 20°31' W 086°57'0 0.0
2016-Aug-24 16:32N 20°31' W 086°57'0 0.0
2016-Aug-24 15:32N 20°31' W 086°57'0 0.1
2016-Aug-24 14:34N 20°31' W 086°57'9 8.7
2016-Aug-24 13:33N 20°38' W 086°53'  
Track history (hours):
 
Tides and Currents Weather Stations Pressure Air Temp Water Temp Dewpoint Dewpoint Depression Visibility Wind Speed Wind Dir Waves Ship Positions

MSC Divina

Last reported at 2016-Aug-31 20:33 UTC. Time now 2016-Aug-31 23:34 UTC.
Position N 18°31' W 066°09'.

Length 333 m; draft 8.6 m.

Type: Passenger vessel. MMSI: 373178000.

Date/timePositionNaut miles runAvg speedWind from/ knotsBaromVisibWave heightAir tempDewpointWater temp
2016-Aug-31 20:33N 18°31' W 066°09'4 3.5
2016-Aug-31 19:22N 18°28' W 066°07'0 0.0
2016-Aug-31 18:31N 18°28' W 066°07'0 0.0
2016-Aug-31 17:28N 18°28' W 066°07'0 0.0
2016-Aug-31 16:27N 18°28' W 066°07'0 0.0
2016-Aug-31 15:33N 18°28' W 066°07'0 0.0
2016-Aug-31 14:29N 18°28' W 066°07'0 0.0
2016-Aug-31 13:33N 18°28' W 066°07'0 0.0
2016-Aug-31 12:33N 18°28' W 066°07'0 0.1
2016-Aug-31 11:34N 18°28' W 066°07'8 7.7
2016-Aug-31 10:33N 18°34' W 066°02'6315.1
2016-Aug-31 06:24N 18°13' W 065°00'1518.1
2016-Aug-31 05:33N 18°10' W 064°44'7016.9
2016-Aug-31 01:25N 18°03' W 063°31'9 9.6
2016-Aug-31 00:31N 18°02' W 063°22'9 9.3
2016-Aug-30 23:33N 18°01' W 063°13'9 0.8
2016-Aug-30 12:12N 18°00' W 063°03'5 7.7
2016-Aug-30 11:33N 18°01' W 063°08'1615.2
2016-Aug-30 10:31N 18°09' W 063°23'  
2016-Aug-28 02:08N 26°10' W 079°21'1120.0
2016-Aug-28 01:33N 26°04' W 079°31'2120.8
2016-Aug-28 00:33N 25°53' W 079°51'1616.5
2016-Aug-27 23:33N 25°45' W 080°07'3 3.1
2016-Aug-27 22:31N 25°47' W 080°10'0 0.0
2016-Aug-27 21:31N 25°47' W 080°10'0 0.0
2016-Aug-27 20:31N 25°47' W 080°10'0 0.0
2016-Aug-27 19:33N 25°47' W 080°10'0 0.0
2016-Aug-27 18:33N 25°47' W 080°10'0 0.0
2016-Aug-27 17:33N 25°47' W 080°10'0 0.0
2016-Aug-27 16:32N 25°47' W 080°10'0 0.0
2016-Aug-27 15:32N 25°47' W 080°10'0 0.0
2016-Aug-27 14:32N 25°47' W 080°10'0 0.0
2016-Aug-27 13:32N 25°47' W 080°10'0 0.0
2016-Aug-27 12:32N 25°47' W 080°10'0 0.0
2016-Aug-27 11:32N 25°47' W 080°10'0 0.0
2016-Aug-27 10:32N 25°47' W 080°10'0 0.5
2016-Aug-27 09:33N 25°47' W 080°11'8 8.1
2016-Aug-27 08:33N 25°47' W 080°02'1615.6
2016-Aug-27 07:33N 25°55' W 079°47'9 8.8
2016-Aug-27 06:33N 25°58' W 079°38'3015.0
2016-Aug-27 04:33N 26°11' W 079°07'8 0.4
2016-Aug-26 06:33N 26°07' W 079°15'53617.9
2016-Aug-25 00:33N 20°38' W 086°55'7 7.1
2016-Aug-24 23:33N 20°31' W 086°57'0 0.0
2016-Aug-24 22:33N 20°31' W 086°57'0 0.0
2016-Aug-24 21:33N 20°31' W 086°57'0 0.0
2016-Aug-24 20:33N 20°31' W 086°57'0 0.0
2016-Aug-24 19:33N 20°31' W 086°57'0 0.0
2016-Aug-24 18:32N 20°31' W 086°57'0 0.0
2016-Aug-24 17:32N 20°31' W 086°57'0 0.0
2016-Aug-24 16:32N 20°31' W 086°57'0 0.0
2016-Aug-24 15:32N 20°31' W 086°57'0 0.1
2016-Aug-24 14:34N 20°31' W 086°57'9 8.7
2016-Aug-24 13:33N 20°38' W 086°53'  

Dump ship's entire track history